Time;durP1;ratioP1;P1;durP2;ratioP2;P2;SDS_P1;SDS_P2;PMS_P1;PMS_P2;Temp;Humidity;BMP_temperature;BMP_pressure;BME280_temperature;BME280_humidity;BME280_pressure;Samples;Min_cycle;Max_cycle;Signal;HPM_P1;HPM_P2
2021/09/11 04:02:27;;;;;;;12.67;11.67;;;20.70;99.90;;;;;;5037970;23;20501;-62
2021/09/11 04:04:54;;;;;;;15.37;14.17;;;20.70;99.90;;;;;;4976306;28;20461;-62
2021/09/11 04:07:20;;;;;;;19.53;17.83;;;20.70;99.90;;;;;;4977467;28;20466;-62
2021/09/11 04:09:47;;;;;;;19.27;17.77;;;20.50;99.90;;;;;;4977487;28;20454;-62
2021/09/11 04:12:14;;;;;;;19.87;18.30;;;20.50;99.90;;;;;;4977437;28;20482;-62
2021/09/11 04:14:40;;;;;;;20.20;18.50;;;20.50;99.90;;;;;;4978072;28;20907;-61
2021/09/11 04:17:07;;;;;;;20.37;18.77;;;20.40;99.90;;;;;;4977600;28;20868;-61
2021/09/11 04:19:35;;;;;;;21.03;19.07;;;20.40;99.90;;;;;;4977658;28;20465;-61
2021/09/11 04:22:02;;;;;;;21.37;19.57;;;20.30;99.90;;;;;;4979467;28;20475;-61
2021/09/11 04:24:29;;;;;;;21.23;19.50;;;20.20;99.90;;;;;;4977209;28;20546;-61
2021/09/11 04:26:55;;;;;;;20.90;18.97;;;20.20;99.90;;;;;;4977150;28;20478;-62
2021/09/11 04:29:22;;;;;;;20.97;19.30;;;20.20;99.90;;;;;;4977209;28;20817;-61
2021/09/11 04:31:49;;;;;;;20.03;18.53;;;20.20;99.90;;;;;;4977199;28;20474;-61
2021/09/11 04:34:15;;;;;;;22.07;20.17;;;20.20;99.90;;;;;;4977126;28;20466;-61
2021/09/11 04:36:43;;;;;;;21.23;19.47;;;20.20;99.90;;;;;;4976793;28;20457;-61
2021/09/11 04:39:10;;;;;;;20.77;19.17;;;20.20;99.90;;;;;;4977035;28;20462;-63
2021/09/11 04:41:37;;;;;;;21.60;19.90;;;20.10;99.90;;;;;;4976572;28;20482;-62
2021/09/11 04:44:04;;;;;;;22.90;21.00;;;20.10;99.90;;;;;;4976893;28;20466;-62
2021/09/11 04:46:31;;;;;;;20.20;18.70;;;20.10;99.90;;;;;;4976533;28;20481;-62
2021/09/11 04:48:58;;;;;;;21.07;19.37;;;20.00;99.90;;;;;;4976383;28;20968;-63
2021/09/11 04:51:25;;;;;;;22.17;20.47;;;20.00;99.90;;;;;;4976413;28;20515;-62
2021/09/11 04:53:53;;;;;;;22.90;21.10;;;19.90;99.90;;;;;;4977464;28;20821;-62
2021/09/11 04:56:20;;;;;;;21.37;19.77;;;19.80;99.90;;;;;;4977915;28;20453;-63
2021/09/11 04:58:47;;;;;;;20.87;19.07;;;19.70;99.90;;;;;;4976884;28;20501;-63
2021/09/11 05:01:13;;;;;;;19.13;17.43;;;19.70;99.90;;;;;;4976591;28;20493;-62
2021/09/11 05:03:40;;;;;;;18.37;16.93;;;19.70;99.90;;;;;;4976653;28;20926;-63
2021/09/11 05:06:07;;;;;;;16.50;15.30;;;19.60;99.90;;;;;;4976786;28;20485;-62
2021/09/11 05:08:33;;;;;;;15.93;14.73;;;19.60;99.90;;;;;;4976667;28;20462;-62
2021/09/11 05:11:01;;;;;;;17.07;15.40;;;19.60;99.90;;;;;;4976039;28;20993;-62
2021/09/11 05:13:28;;;;;;;15.87;14.77;;;19.50;99.90;;;;;;4976489;28;20459;-63
2021/09/11 05:15:55;;;;;;;15.57;14.27;;;19.50;99.90;;;;;;4976225;28;20513;-63
2021/09/11 05:18:21;;;;;;;14.30;13.10;;;19.40;99.90;;;;;;4976316;28;20514;-63
2021/09/11 05:20:48;;;;;;;15.23;13.97;;;19.40;99.90;;;;;;4975669;28;20982;-62
2021/09/11 05:23:15;;;;;;;17.57;15.83;;;19.40;99.90;;;;;;4975792;28;20463;-62
2021/09/11 05:25:42;;;;;;;17.20;15.90;;;19.30;99.90;;;;;;4976016;28;20829;-63
2021/09/11 05:28:10;;;;;;;15.87;14.67;;;19.30;99.90;;;;;;4975801;28;20465;-63
2021/09/11 05:30:36;;;;;;;14.57;13.23;;;19.30;99.90;;;;;;4975693;28;20835;-65
2021/09/11 05:33:03;;;;;;;15.70;14.27;;;19.30;99.90;;;;;;4975939;28;20458;-65
2021/09/11 05:35:30;;;;;;;17.93;16.53;;;19.10;99.90;;;;;;4975800;28;20455;-66
2021/09/11 05:37:56;;;;;;;18.20;16.70;;;19.10;99.90;;;;;;4975655;28;20462;-65
2021/09/11 05:40:23;;;;;;;19.50;17.73;;;19.10;99.90;;;;;;4975154;28;20462;-65
2021/09/11 05:42:50;;;;;;;20.70;19.10;;;19.10;99.90;;;;;;4975615;28;20458;-65
2021/09/11 05:45:18;;;;;;;18.97;17.40;;;19.00;99.90;;;;;;4975667;28;20458;-65
2021/09/11 05:47:44;;;;;;;20.10;18.50;;;19.00;99.90;;;;;;4975676;28;20479;-65
2021/09/11 05:50:11;;;;;;;21.30;19.47;;;19.00;99.90;;;;;;4975300;28;20458;-65
2021/09/11 05:52:38;;;;;;;20.87;18.93;;;19.00;99.90;;;;;;4975602;28;20455;-65
2021/09/11 05:55:06;;;;;;;19.33;17.67;;;19.10;99.90;;;;;;4975637;28;20851;-65
2021/09/11 05:57:32;;;;;;;19.20;17.63;;;19.10;99.90;;;;;;4975653;28;20458;-65
2021/09/11 06:00:00;;;;;;;20.17;18.50;;;19.10;99.90;;;;;;4976475;28;20455;-65
2021/09/11 06:02:28;;;;;;;22.30;20.20;;;19.00;99.90;;;;;;4975060;28;20493;-65
2021/09/11 06:04:55;;;;;;;21.03;19.13;;;18.90;99.90;;;;;;4975315;28;20463;-65
2021/09/11 06:07:21;;;;;;;21.07;19.37;;;18.90;99.90;;;;;;4975394;28;20474;-65
2021/09/11 06:09:48;;;;;;;21.30;19.43;;;18.80;99.90;;;;;;4975456;28;20817;-65
2021/09/11 06:12:15;;;;;;;20.87;19.17;;;18.90;99.90;;;;;;4975332;28;20984;-65
2021/09/11 06:14:42;;;;;;;21.93;20.07;;;18.90;99.90;;;;;;4975240;28;20454;-65
2021/09/11 06:17:09;;;;;;;20.33;18.77;;;18.90;99.90;;;;;;4975249;28;20451;-65
2021/09/11 06:19:37;;;;;;;21.47;19.47;;;18.90;99.90;;;;;;4974808;28;20466;-65
2021/09/11 06:22:05;;;;;;;19.70;18.13;;;18.90;99.90;;;;;;4974906;28;20486;-65
2021/09/11 06:24:32;;;;;;;19.27;17.67;;;18.90;99.90;;;;;;4976398;28;20443;-65
2021/09/11 06:26:58;;;;;;;21.13;19.43;;;18.90;99.90;;;;;;4978070;28;20482;-65
2021/09/11 06:29:25;;;;;;;19.80;18.10;;;19.00;99.90;;;;;;4979166;28;20455;-65
2021/09/11 06:31:52;;;;;;;21.50;19.70;;;19.10;99.90;;;;;;4978979;28;20478;-65
2021/09/11 06:34:19;;;;;;;20.27;18.47;;;19.10;99.90;;;;;;4978925;28;20454;-65
2021/09/11 06:36:47;;;;;;;20.53;18.80;;;19.10;99.90;;;;;;4978959;28;20827;-65
2021/09/11 06:39:13;;;;;;;20.57;18.70;;;19.20;99.90;;;;;;4978909;28;20459;-65
2021/09/11 06:41:40;;;;;;;19.40;17.90;;;19.30;99.90;;;;;;4978828;28;20479;-65
2021/09/11 06:44:07;;;;;;;19.17;17.70;;;19.20;99.90;;;;;;4978897;28;20458;-65
2021/09/11 06:46:34;;;;;;;19.53;17.50;;;19.20;99.90;;;;;;4979193;28;20482;-65
2021/09/11 06:49:01;;;;;;;18.33;16.97;;;19.30;99.90;;;;;;4978795;28;20461;-65
2021/09/11 06:51:28;;;;;;;18.80;17.30;;;19.30;99.90;;;;;;4978658;28;20994;-65
2021/09/11 06:53:56;;;;;;;16.07;14.77;;;19.30;99.90;;;;;;4978221;28;20823;-65
2021/09/11 06:56:22;;;;;;;17.77;16.27;;;19.40;99.90;;;;;;4978428;28;20451;-65
2021/09/11 06:58:49;;;;;;;16.53;15.13;;;19.40;99.90;;;;;;4978386;28;20490;-65
2021/09/11 07:01:16;;;;;;;12.90;11.97;;;19.50;99.90;;;;;;4977946;28;20506;-65
2021/09/11 07:03:45;;;;;;;14.53;13.43;;;19.50;99.90;;;;;;4978422;28;20462;-64
2021/09/11 07:06:12;;;;;;;14.17;13.07;;;19.50;99.90;;;;;;4978261;28;20533;-65
2021/09/11 07:08:38;;;;;;;14.00;12.70;;;19.50;99.90;;;;;;4978429;28;20853;-65
2021/09/11 07:11:10;;;;;;;14.07;12.77;;;19.60;99.90;;;;;;4978075;28;20485;-65
2021/09/11 07:13:37;;;;;;;10.60;9.90;;;19.70;99.90;;;;;;4978303;28;20443;-65
2021/09/11 07:16:04;;;;;;;11.43;10.40;;;19.80;99.90;;;;;;4978186;28;20461;-65
2021/09/11 07:18:31;;;;;;;10.57;9.77;;;19.80;99.90;;;;;;4978241;28;20466;-65
2021/09/11 07:20:58;;;;;;;9.47;8.87;;;19.90;99.90;;;;;;4978136;28;20478;-63
2021/09/11 07:23:24;;;;;;;9.30;8.60;;;20.00;99.90;;;;;;4978156;28;20454;-64
2021/09/11 07:25:51;;;;;;;9.33;8.63;;;20.20;99.90;;;;;;4977995;28;20462;-64
2021/09/11 07:28:19;;;;;;;8.37;7.87;;;20.30;99.90;;;;;;4977563;28;21013;-64
2021/09/11 07:30:46;;;;;;;8.93;8.33;;;20.40;99.90;;;;;;4977845;28;20474;-66
2021/09/11 07:33:13;;;;;;;9.50;8.80;;;20.40;99.90;;;;;;4978011;28;20454;-62
2021/09/11 07:35:40;;;;;;;8.73;8.13;;;20.40;99.90;;;;;;4977903;28;20455;-63
2021/09/11 07:38:07;;;;;;;9.07;8.27;;;20.50;99.90;;;;;;4977195;28;20946;-64
2021/09/11 07:40:33;;;;;;;8.50;7.70;;;20.50;99.90;;;;;;4976928;28;20939;-64
2021/09/11 07:43:01;;;;;;;13.07;8.70;;;20.50;99.90;;;;;;4977708;28;20458;-64
2021/09/11 07:45:29;;;;;;;8.40;7.80;;;20.60;99.90;;;;;;4977730;28;20455;-64
2021/09/11 07:47:55;;;;;;;7.87;7.27;;;20.80;99.90;;;;;;4977274;28;21013;-64
2021/09/11 07:50:26;;;;;;;9.67;7.63;;;21.00;99.90;;;;;;4977470;28;20454;-65
2021/09/11 07:52:53;;;;;;;8.77;7.97;;;21.00;99.90;;;;;;4978383;28;20534;-64
2021/09/11 07:55:20;;;;;;;8.00;7.30;;;21.10;99.90;;;;;;4977607;28;20487;-64
2021/09/11 07:57:46;;;;;;;7.93;7.20;;;21.10;99.90;;;;;;4977718;28;20462;-64
2021/09/11 08:00:15;;;;;;;8.07;7.57;;;21.20;99.90;;;;;;4977223;28;20459;-65
2021/09/11 08:02:43;;;;;;;7.77;7.13;;;21.40;99.90;;;;;;4977219;28;20439;-64
2021/09/11 08:05:10;;;;;;;7.60;7.10;;;21.50;99.90;;;;;;4977332;28;20465;-64
2021/09/11 08:07:37;;;;;;;7.80;7.10;;;21.60;99.90;;;;;;4977140;28;20475;-64
2021/09/11 08:10:04;;;;;;;8.63;8.03;;;21.80;99.90;;;;;;4977149;28;20455;-66
2021/09/11 08:12:31;;;;;;;8.17;7.43;;;21.90;99.90;;;;;;4976820;28;20989;-65
2021/09/11 08:14:58;;;;;;;7.57;7.00;;;22.20;99.90;;;;;;4977124;28;20459;-65
2021/09/11 08:17:25;;;;;;;8.33;7.67;;;22.20;99.90;;;;;;4977084;28;20489;-65
2021/09/11 08:19:53;;;;;;;7.23;6.60;;;22.20;99.90;;;;;;4977009;28;20622;-66
2021/09/11 08:22:19;;;;;;;7.43;6.93;;;22.50;99.90;;;;;;4976508;28;21001;-64
2021/09/11 08:24:46;;;;;;;7.67;7.07;;;22.50;99.90;;;;;;4976914;28;20462;-65
2021/09/11 08:27:13;;;;;;;6.83;6.43;;;22.90;99.90;;;;;;4976597;28;20883;-65
2021/09/11 08:29:41;;;;;;;7.10;6.60;;;23.10;99.90;;;;;;4976534;28;20967;-65
2021/09/11 08:32:08;;;;;;;6.87;6.37;;;23.70;99.90;;;;;;4976934;28;20501;-64
2021/09/11 08:34:35;;;;;;;6.07;5.67;;;24.10;99.90;;;;;;4976314;28;20958;-65
2021/09/11 08:37:03;;;;;;;6.13;5.73;;;24.40;99.90;;;;;;4976941;28;20465;-65
2021/09/11 08:39:30;;;;;;;7.87;6.30;;;24.40;99.90;;;;;;4976905;28;20458;-65
2021/09/11 08:41:58;;;;;;;8.00;7.40;;;24.30;99.90;;;;;;4976829;28;20474;-65
2021/09/11 08:44:26;;;;;;;7.70;7.13;;;24.00;99.90;;;;;;4976902;28;20455;-64
2021/09/11 08:46:53;;;;;;;6.70;6.30;;;23.80;99.90;;;;;;4976671;28;20495;-65
2021/09/11 08:49:21;;;;;;;7.27;6.77;;;23.70;99.90;;;;;;4976348;28;20462;-64
2021/09/11 08:51:48;;;;;;;6.83;6.33;;;23.60;99.90;;;;;;4976066;28;20479;-65
2021/09/11 08:54:19;;;;;;;7.50;6.90;;;23.50;99.90;;;;;;4976139;28;20475;-65
2021/09/11 08:56:48;;;;;;;7.57;7.03;;;23.50;99.90;;;;;;4975876;28;20899;-64
2021/09/11 08:59:17;;;;;;;6.90;6.20;;;23.50;99.90;;;;;;4976045;28;20454;-64
2021/09/11 09:02:00;;;;;;;10.10;7.10;;;23.80;99.90;;;;;;4975833;28;20494;-64
2021/09/11 09:04:42;;;;;;;6.97;6.20;;;23.80;99.90;;;;;;4975897;28;20439;-64
2021/09/11 09:07:09;;;;;;;5.67;5.20;;;23.90;99.90;;;;;;4976364;28;20470;-65
2021/09/11 09:09:41;;;;;;;6.27;5.77;;;24.00;99.90;;;;;;4975824;28;20461;-65
2021/09/11 09:12:14;;;;;;;8.30;5.00;;;23.80;99.90;;;;;;4976605;28;20867;-64
2021/09/11 09:14:41;;;;;;;5.90;5.50;;;23.70;99.90;;;;;;4976124;28;20958;-64
2021/09/11 09:17:12;;;;;;;5.77;5.37;;;23.80;99.90;;;;;;4976603;28;20477;-65
2021/09/11 09:19:39;;;;;;;5.80;5.30;;;23.90;99.90;;;;;;4976641;28;20471;-66
2021/09/11 09:22:05;;;;;;;5.47;4.70;;;24.10;99.90;;;;;;4976468;28;20481;-66
2021/09/11 09:24:34;;;;;;;4.70;4.40;;;24.30;99.90;;;;;;4976276;28;20827;-67
2021/09/11 09:27:04;;;;;;;5.50;4.60;;;24.50;99.90;;;;;;4975741;28;20890;-64
2021/09/11 09:29:35;;;;;;;4.67;4.40;;;24.90;99.90;;;;;;4977490;28;20502;-64
2021/09/11 09:32:03;;;;;;;5.60;5.20;;;25.20;99.90;;;;;;4975861;28;20513;-65
2021/09/11 09:34:32;;;;;;;5.90;5.30;;;25.40;99.90;;;;;;4975732;28;20454;-64
2021/09/11 09:37:01;;;;;;;5.13;4.73;;;25.30;99.90;;;;;;4975865;28;20439;-64
2021/09/11 09:39:28;;;;;;;5.10;4.70;;;25.50;99.90;;;;;;4975436;28;20960;-64
2021/09/11 09:42:05;;;;;;;5.37;5.03;;;25.70;99.90;;;;;;4975536;28;20471;-64
2021/09/11 09:44:41;;;;;;;4.90;4.50;;;25.90;99.90;;;;;;4975534;28;20445;-64
2021/09/11 09:47:12;;;;;;;4.93;4.63;;;26.30;99.90;;;;;;4975280;28;20463;-64
2021/09/11 09:49:39;;;;;;;4.67;4.10;;;26.70;99.90;;;;;;4975130;28;20911;-64
2021/09/11 09:52:06;;;;;;;4.10;3.90;;;26.70;99.90;;;;;;4975425;28;20475;-64
2021/09/11 09:54:33;;;;;;;4.80;4.60;;;26.80;99.90;;;;;;4975532;28;20853;-64
2021/09/11 09:57:00;;;;;;;4.20;4.00;;;26.30;99.90;;;;;;4975551;28;20455;-64
2021/09/11 09:59:28;;;;;;;4.60;4.30;;;25.70;99.90;;;;;;4975498;28;20850;-64
2021/09/11 10:01:55;;;;;;;5.03;4.63;;;25.60;99.90;;;;;;4974538;28;20900;-65
2021/09/11 10:04:24;;;;;;;4.77;4.47;;;25.50;99.90;;;;;;4975808;28;20459;-64
2021/09/11 10:06:55;;;;;;;5.93;5.53;;;25.40;99.90;;;;;;4975722;28;20446;-64
2021/09/11 10:09:26;;;;;;;5.03;4.73;;;25.20;99.90;;;;;;4975864;28;20446;-64
2021/09/11 10:11:53;;;;;;;7.53;4.97;;;25.30;99.90;;;;;;4977772;28;20865;-64
2021/09/11 10:14:21;;;;;;;5.33;4.97;;;25.30;99.90;;;;;;4979252;28;20462;-64
2021/09/11 10:17:00;;;;;;;5.13;4.73;;;25.10;99.90;;;;;;4978419;28;20458;-64
2021/09/11 10:19:29;;;;;;;3.50;3.40;;;25.30;99.90;;;;;;4979460;28;20439;-65
2021/09/11 10:22:07;;;;;;;6.50;4.03;;;25.30;99.90;;;;;;4975606;28;20485;-64
2021/09/11 10:24:36;;;;;;;3.63;3.43;;;25.60;99.90;;;;;;4976167;28;20439;-64
2021/09/11 10:27:09;;;;;;;3.70;3.50;;;25.70;99.90;;;;;;4975516;28;20463;-64
2021/09/11 10:29:53;;;;;;;3.57;3.27;;;25.70;99.90;;;;;;4975561;28;20472;-64
2021/09/11 10:32:36;;;;;;;4.47;4.20;;;25.90;99.90;;;;;;4975521;28;20478;-64
2021/09/11 10:35:06;;;;;;;5.70;4.37;;;26.00;99.90;;;;;;4975322;28;20497;-64
2021/09/11 10:37:38;;;;;;;3.83;3.50;;;26.00;99.90;;;;;;4975384;28;20454;-63
2021/09/11 10:40:30;;;;;;;4.93;4.63;;;26.00;99.90;;;;;;4975397;28;20443;-64
2021/09/11 10:43:19;;;;;;;4.27;4.07;;;26.10;99.90;;;;;;4972495;28;20461;-64
2021/09/11 10:45:48;;;;;;;3.97;3.67;;;26.30;99.90;;;;;;4973115;28;20954;-64
2021/09/11 10:48:48;;;;;;;4.70;4.40;;;26.30;99.90;;;;;;4975499;28;20992;-64
2021/09/11 10:51:36;;;;;;;8.93;7.97;;;26.30;99.90;;;;;;4975276;28;20478;-64
2021/09/11 10:54:07;;;;;;;6.73;6.23;;;26.50;99.90;;;;;;4975342;28;20439;-64
2021/09/11 10:56:36;;;;;;;4.50;4.20;;;27.30;99.90;;;;;;4976468;28;20435;-64
2021/09/11 10:59:42;;;;;;;10.13;9.23;;;28.30;99.90;;;;;;4975773;28;20804;-64
2021/09/11 11:02:36;;;;;;;7.60;7.00;;;29.20;99.90;;;;;;4976262;28;20485;-64
2021/09/11 11:05:07;;;;;;;7.10;6.43;;;30.00;99.90;;;;;;4975393;28;20490;-65
2021/09/11 11:07:35;;;;;;;5.17;4.70;;;30.50;99.90;;;;;;4975749;28;20466;-64
2021/09/11 11:10:05;;;;;;;6.77;6.27;;;30.50;99.90;;;;;;4975164;28;20458;-64
2021/09/11 11:12:33;;;;;;;6.50;6.07;;;30.40;99.90;;;;;;4975424;28;20478;-64
2021/09/11 11:15:01;;;;;;;8.03;7.33;;;29.70;99.90;;;;;;4978379;28;20458;-64
2021/09/11 11:17:29;;;;;;;5.67;5.27;;;29.30;99.90;;;;;;4978626;28;20446;-64
2021/09/11 11:19:56;;;;;;;4.87;4.57;;;28.50;99.90;;;;;;4978404;28;20942;-64
2021/09/11 11:22:31;;;;;;;5.37;5.07;;;28.20;99.90;;;;;;4978350;28;20474;-64
2021/09/11 11:24:59;;;;;;;4.20;3.90;;;27.70;99.90;;;;;;4978225;28;20509;-64
2021/09/11 11:27:27;;;;;;;4.37;4.17;;;27.50;99.90;;;;;;4978422;28;20458;-64
2021/09/11 11:29:56;;;;;;;4.50;4.20;;;26.90;99.90;;;;;;4978155;28;20447;-64
2021/09/11 11:32:25;;;;;;;4.83;4.53;;;26.70;99.90;;;;;;4978169;28;21009;-62
2021/09/11 11:34:55;;;;;;;4.53;4.23;;;26.50;99.90;;;;;;4978020;28;20469;-63
2021/09/11 11:37:22;;;;;;;4.43;4.13;;;26.30;99.90;;;;;;4978542;28;20513;-62
2021/09/11 11:39:50;;;;;;;3.80;3.60;;;26.10;99.90;;;;;;4978646;28;20826;-63
2021/09/11 11:42:22;;;;;;;4.20;3.90;;;25.90;99.90;;;;;;4977988;28;20553;-62
2021/09/11 11:44:50;;;;;;;4.33;4.03;;;25.60;99.90;;;;;;4977703;28;20525;-63
2021/09/11 11:57:40;;;;;;;4.97;3.40;;;25.50;99.90;;;;;;5068667;23;20857;-64
2021/09/11 12:00:10;;;;;;;4.27;3.87;;;25.00;99.90;;;;;;4958644;29;20462;-66
2021/09/11 12:02:39;;;;;;;4.10;3.60;;;24.80;99.90;;;;;;4959517;28;20468;-63
2021/09/11 12:05:22;;;;;;;4.27;2.90;;;24.10;99.90;;;;;;4965470;29;20456;-64
2021/09/11 12:07:54;;;;;;;4.23;3.90;;;23.70;99.90;;;;;;4967295;29;20574;-65
2021/09/11 12:10:21;;;;;;;2.90;2.67;;;23.40;99.90;;;;;;4960129;29;20463;-66
2021/09/11 12:12:50;;;;;;;3.00;2.70;;;23.20;99.90;;;;;;4959274;29;20464;-64
2021/09/11 12:15:19;;;;;;;3.87;3.10;;;23.10;99.90;;;;;;4958009;28;20458;-64
2021/09/11 12:18:00;;;;;;;3.60;3.30;;;22.70;99.90;;;;;;4959275;29;20476;-67
2021/09/11 12:20:28;;;;;;;6.43;3.40;;;22.50;99.90;;;;;;4963536;28;20419;-64
2021/09/11 12:23:06;;;;;;;3.23;2.70;;;22.30;99.90;;;;;;4981777;28;20447;-65
2021/09/11 12:25:57;;;;;;;4.47;2.87;;;22.00;99.90;;;;;;4959705;28;20455;-65
2021/09/11 12:28:37;;;;;;;4.13;3.07;;;22.00;99.90;;;;;;4958841;29;20476;-65
2021/09/11 12:31:05;;;;;;;3.50;3.20;;;21.90;99.90;;;;;;4958241;29;20495;-65
2021/09/11 12:33:42;;;;;;;2.83;2.70;;;22.00;99.90;;;;;;4957723;29;20466;-64
2021/09/11 12:36:23;;;;;;;6.97;4.00;;;22.00;99.90;;;;;;4957430;29;21001;-65
2021/09/11 12:38:51;;;;;;;3.93;3.53;;;22.00;99.90;;;;;;4957984;29;20458;-64
2021/09/11 12:41:19;;;;;;;3.80;3.27;;;22.20;99.90;;;;;;4957282;28;20997;-64
2021/09/11 12:43:47;;;;;;;3.90;3.70;;;22.40;99.90;;;;;;4958323;29;20459;-65
2021/09/11 12:46:29;;;;;;;3.40;3.10;;;22.60;99.90;;;;;;4959247;29;20487;-65
2021/09/11 12:48:56;;;;;;;3.83;3.60;;;22.80;99.90;;;;;;4957993;29;20472;-64
2021/09/11 12:51:23;;;;;;;3.20;3.10;;;22.80;99.90;;;;;;4957248;29;20462;-64
2021/09/11 12:53:50;;;;;;;3.13;2.93;;;23.10;99.90;;;;;;4958100;29;20939;-65
2021/09/11 12:56:21;;;;;;;2.87;2.73;;;23.20;99.90;;;;;;4957541;29;20475;-65
2021/09/11 12:58:50;;;;;;;2.50;2.40;;;23.50;99.90;;;;;;4958077;29;20436;-65
2021/09/11 13:01:17;;;;;;;2.40;2.30;;;23.90;99.90;;;;;;4957827;28;20505;-64
2021/09/11 13:03:43;;;;;;;2.27;2.07;;;24.20;99.90;;;;;;4957079;29;20462;-64
2021/09/11 13:06:10;;;;;;;2.43;2.23;;;24.60;99.90;;;;;;4957011;29;20472;-66
2021/09/11 13:08:37;;;;;;;2.70;2.50;;;25.10;99.90;;;;;;4956972;29;20522;-65
2021/09/11 13:11:04;;;;;;;2.70;2.50;;;25.30;99.90;;;;;;4956901;29;20463;-64
2021/09/11 13:13:30;;;;;;;2.57;2.47;;;25.30;99.90;;;;;;4956881;28;20444;-64
2021/09/11 13:15:59;;;;;;;3.20;3.00;;;25.50;99.90;;;;;;4957147;29;20479;-65
2021/09/11 13:18:26;;;;;;;3.10;2.70;;;25.20;99.90;;;;;;4957096;29;20452;-64
2021/09/11 13:20:58;;;;;;;3.40;3.20;;;24.70;99.90;;;;;;4956885;28;20483;-64
2021/09/11 13:23:25;;;;;;;3.33;3.10;;;24.50;99.90;;;;;;4971073;29;20440;-65
2021/09/11 13:25:52;;;;;;;3.67;3.47;;;24.20;99.90;;;;;;4969998;29;20482;-65
2021/09/11 13:28:18;;;;;;;3.60;3.40;;;24.20;99.90;;;;;;4965725;29;20487;-64
2021/09/11 13:30:45;;;;;;;3.87;3.57;;;24.10;99.90;;;;;;4956722;28;20482;-64
2021/09/11 13:33:13;;;;;;;4.30;3.90;;;24.00;99.90;;;;;;4956776;29;20463;-65
2021/09/11 13:35:40;;;;;;;4.30;4.00;;;23.90;99.90;;;;;;4956638;28;20496;-64
2021/09/11 13:38:06;;;;;;;4.60;4.33;;;23.70;99.90;;;;;;4956325;28;20831;-65
2021/09/11 13:40:33;;;;;;;4.30;4.00;;;23.60;99.90;;;;;;4956519;29;20455;-64
2021/09/11 13:43:00;;;;;;;5.00;4.60;;;23.50;99.90;;;;;;4956457;28;20520;-64
2021/09/11 13:45:27;;;;;;;4.70;4.30;;;23.50;99.90;;;;;;4956031;28;20467;-65
2021/09/11 13:47:53;;;;;;;5.00;4.60;;;23.40;99.90;;;;;;4956082;29;20942;-65
2021/09/11 13:50:22;;;;;;;6.03;4.20;;;23.30;99.90;;;;;;4956544;29;20460;-64
2021/09/11 13:52:48;;;;;;;4.47;4.07;;;23.50;99.90;;;;;;4956354;28;20816;-66
2021/09/11 13:55:15;;;;;;;4.33;4.03;;;23.30;99.90;;;;;;4956117;29;20466;-64
2021/09/11 13:57:42;;;;;;;4.60;4.30;;;23.50;99.90;;;;;;4955876;29;20487;-65
2021/09/11 14:00:10;;;;;;;4.70;4.37;;;23.60;99.90;;;;;;4956088;29;20451;-64
2021/09/11 14:02:36;;;;;;;6.13;5.73;;;23.60;99.90;;;;;;4956577;28;20825;-64
2021/09/11 14:05:04;;;;;;;4.30;4.00;;;23.70;99.90;;;;;;4956584;29;20463;-65
2021/09/11 14:07:32;;;;;;;4.47;4.17;;;23.80;99.90;;;;;;4956266;28;20489;-64
2021/09/11 14:09:59;;;;;;;4.20;4.00;;;23.80;99.90;;;;;;4956045;29;20486;-64
2021/09/11 14:12:26;;;;;;;4.10;3.90;;;23.80;99.90;;;;;;4956504;29;20459;-65
2021/09/11 14:14:53;;;;;;;4.20;4.00;;;23.90;99.90;;;;;;4955846;29;20460;-64
2021/09/11 14:17:19;;;;;;;4.17;3.97;;;24.00;99.90;;;;;;4956327;29;20479;-64
2021/09/11 14:19:46;;;;;;;7.50;6.00;;;24.10;99.90;;;;;;4956698;29;20451;-66
2021/09/11 14:22:13;;;;;;;4.90;4.50;;;24.20;99.90;;;;;;4956255;29;20822;-64
2021/09/11 14:24:41;;;;;;;4.90;4.50;;;24.10;99.90;;;;;;4956360;29;20514;-65
2021/09/11 14:27:07;;;;;;;4.57;4.17;;;23.90;99.90;;;;;;4956560;29;20475;-65
2021/09/11 14:29:34;;;;;;;3.77;3.60;;;24.00;99.90;;;;;;4956301;29;20486;-64
2021/09/11 14:32:01;;;;;;;4.07;3.77;;;24.10;99.90;;;;;;4956254;29;20950;-64
2021/09/11 14:34:27;;;;;;;4.63;4.07;;;24.10;99.90;;;;;;4956894;29;20821;-65
2021/09/11 14:36:54;;;;;;;4.20;3.90;;;24.10;99.90;;;;;;4956984;29;20983;-65
2021/09/11 14:39:22;;;;;;;3.70;3.40;;;24.10;99.90;;;;;;4959675;28;20447;-64
2021/09/11 14:41:50;;;;;;;4.40;3.93;;;24.30;99.90;;;;;;4958568;29;20455;-65
2021/09/11 14:44:16;;;;;;;4.73;4.33;;;24.40;99.90;;;;;;4956364;29;20958;-65
2021/09/11 14:46:43;;;;;;;3.40;3.10;;;24.60;99.90;;;;;;4969212;29;20475;-65
2021/09/11 14:49:10;;;;;;;3.50;3.30;;;24.80;99.90;;;;;;4964789;28;20506;-65
2021/09/11 14:51:37;;;;;;;3.23;3.00;;;25.00;99.90;;;;;;4961185;28;20491;-64
2021/09/11 14:54:03;;;;;;;3.50;3.30;;;25.00;99.90;;;;;;4960719;29;20456;-65
2021/09/11 14:56:30;;;;;;;3.70;3.50;;;25.10;99.90;;;;;;4960024;28;20491;-64
2021/09/11 14:58:58;;;;;;;5.10;3.90;;;25.00;99.90;;;;;;4966486;29;20419;-65
2021/09/11 15:01:25;;;;;;;3.37;3.17;;;24.70;99.90;;;;;;4969680;29;20456;-65
2021/09/11 15:03:51;;;;;;;3.60;3.00;;;24.60;99.90;;;;;;4959826;29;20462;-64
2021/09/11 15:06:18;;;;;;;3.40;3.10;;;24.50;99.90;;;;;;4960430;29;20482;-64
2021/09/11 15:08:45;;;;;;;3.57;3.13;;;24.30;99.90;;;;;;4960117;28;20475;-64
2021/09/11 15:11:12;;;;;;;3.13;2.93;;;24.30;99.90;;;;;;4959390;28;20455;-64
2021/09/11 15:13:38;;;;;;;4.17;3.83;;;24.20;99.90;;;;;;4958681;29;20459;-64
2021/09/11 15:16:07;;;;;;;2.63;2.53;;;24.00;99.90;;;;;;4958602;29;20827;-64
2021/09/11 15:18:33;;;;;;;3.23;3.07;;;23.90;99.90;;;;;;4958876;28;20459;-64
2021/09/11 15:21:00;;;;;;;4.23;2.70;;;23.80;99.90;;;;;;4958795;29;20452;-63
2021/09/11 15:23:27;;;;;;;3.97;3.67;;;23.70;99.90;;;;;;4959217;29;20459;-64
2021/09/11 15:25:54;;;;;;;6.40;3.53;;;23.60;99.90;;;;;;4959036;29;21009;-62
2021/09/11 15:28:20;;;;;;;4.13;3.70;;;23.50;99.90;;;;;;4959547;29;20471;-63
2021/09/11 15:30:48;;;;;;;4.10;3.80;;;23.50;99.90;;;;;;4958855;29;20483;-63
2021/09/11 15:33:16;;;;;;;5.83;5.30;;;23.40;99.90;;;;;;4958900;29;20467;-64
2021/09/11 15:35:43;;;;;;;4.73;4.47;;;23.30;99.90;;;;;;4959623;28;20455;-65
2021/09/11 15:38:11;;;;;;;5.07;4.77;;;23.20;99.90;;;;;;4958757;29;20467;-65
2021/09/11 15:40:38;;;;;;;5.37;5.07;;;23.20;99.90;;;;;;4958628;29;20451;-65
2021/09/11 15:43:05;;;;;;;4.90;4.47;;;23.20;99.90;;;;;;4958502;29;20566;-65
2021/09/11 15:45:32;;;;;;;4.20;3.90;;;23.20;99.90;;;;;;4958407;29;20464;-65
2021/09/11 15:48:01;;;;;;;4.70;4.40;;;23.20;99.90;;;;;;4958549;29;20459;-65
2021/09/11 15:50:29;;;;;;;4.63;4.20;;;23.20;99.90;;;;;;4957887;28;20483;-65
2021/09/11 15:52:56;;;;;;;4.87;4.53;;;23.20;99.90;;;;;;4958518;29;20460;-65
2021/09/11 15:55:22;;;;;;;4.20;3.83;;;23.30;99.90;;;;;;4957996;28;20455;-64
2021/09/11 15:57:49;;;;;;;4.73;4.33;;;23.30;99.90;;;;;;4957856;28;20487;-65
2021/09/11 16:00:16;;;;;;;4.50;4.10;;;23.30;99.90;;;;;;4957092;28;20451;-65
2021/09/11 16:02:44;;;;;;;5.33;4.93;;;23.30;99.90;;;;;;4958195;29;20456;-64
2021/09/11 16:05:15;;;;;;;4.17;3.87;;;23.30;99.90;;;;;;4961428;29;20966;-66
2021/09/11 16:07:45;;;;;;;4.67;4.27;;;23.20;99.90;;;;;;4967567;29;20489;-65
2021/09/11 16:10:13;;;;;;;4.00;3.80;;;23.20;99.90;;;;;;4973750;29;20471;-66
2021/09/11 16:12:39;;;;;;;3.80;3.57;;;23.10;99.90;;;;;;4962481;29;20455;-65
2021/09/11 16:15:07;;;;;;;4.57;4.20;;;23.10;99.90;;;;;;4959249;28;20459;-65
2021/09/11 16:17:34;;;;;;;3.73;3.43;;;23.00;99.90;;;;;;4959059;28;20511;-65
2021/09/11 16:20:01;;;;;;;4.20;4.00;;;22.90;99.90;;;;;;4959440;29;20459;-65
2021/09/11 16:22:28;;;;;;;3.60;3.40;;;22.80;99.90;;;;;;4958705;29;20466;-65
2021/09/11 16:24:56;;;;;;;4.17;3.87;;;22.70;99.90;;;;;;4958920;29;20456;-64
2021/09/11 16:27:23;;;;;;;4.37;4.07;;;22.60;99.90;;;;;;4958898;29;20483;-64
2021/09/11 16:29:49;;;;;;;4.10;3.77;;;22.50;99.90;;;;;;4957981;29;20502;-65
2021/09/11 16:32:17;;;;;;;4.00;3.70;;;22.50;99.90;;;;;;4957718;29;20455;-65
2021/09/11 16:34:44;;;;;;;4.60;4.30;;;22.40;99.90;;;;;;4962640;29;20458;-64
2021/09/11 16:37:10;;;;;;;4.03;3.70;;;22.30;99.90;;;;;;4972710;29;20475;-65
2021/09/11 16:39:37;;;;;;;4.67;3.50;;;22.20;99.90;;;;;;4965929;29;20459;-64
2021/09/11 16:42:06;;;;;;;5.20;4.27;;;22.20;99.90;;;;;;4957622;29;20462;-65
2021/09/11 16:44:33;;;;;;;4.00;3.70;;;22.20;99.90;;;;;;4965088;28;20460;-65
2021/09/11 16:46:59;;;;;;;3.80;3.50;;;22.20;99.90;;;;;;4961832;28;20486;-64
2021/09/11 16:49:26;;;;;;;3.50;3.30;;;22.10;99.90;;;;;;4964357;28;20480;-65
2021/09/11 16:51:53;;;;;;;4.10;3.90;;;22.10;99.90;;;;;;4959891;29;20518;-65
2021/09/11 16:54:19;;;;;;;4.60;4.30;;;22.00;99.90;;;;;;4957052;29;20455;-65
2021/09/11 16:56:46;;;;;;;3.93;3.70;;;22.00;99.90;;;;;;4956975;28;20912;-65
2021/09/11 16:59:14;;;;;;;3.13;3.03;;;22.10;99.90;;;;;;4957248;29;20480;-65